Time,TemperatureF,DewpointF,PressureIn,WindDirection,WindDirectionDegrees,WindSpeedMPH,WindSpeedGustMPH,Humidity,HourlyPrecipIn,Conditions,Clouds,dailyrainin,SoftwareType,DateUTC
2013-09-17 00:05:00,50.0,41.0,30.22,NNE,25,0.0,-999.0,70,-99.99,,,-99.99,,2013-09-17 04:05:00,
2013-09-17 00:14:00,50.0,41.0,30.22,NNE,25,0.0,-999.0,70,-99.99,,,-99.99,,2013-09-17 04:14:00,
2013-09-17 00:54:00,49.0,40.0,30.24,North,360,4.0,-999.0,70,-99.99,,,-99.99,,2013-09-17 04:54:00,
2013-09-17 01:12:00,48.0,38.0,30.25,NNW,345,0.0,-999.0,67,-99.99,,,-99.99,,2013-09-17 05:12:00,
2013-09-17 01:23:00,48.0,38.0,30.25,NNW,345,0.0,-999.0,67,-99.99,,,-99.99,,2013-09-17 05:23:00,
2013-09-17 01:52:00,47.0,37.0,30.26,NNE,16,0.0,-999.0,67,-99.99,,,-99.99,,2013-09-17 05:52:00,
2013-09-17 02:12:00,47.0,37.0,30.27,NNE,15,0.0,-999.0,68,-99.99,,,-99.99,,2013-09-17 06:12:00,
2013-09-17 02:22:00,47.0,37.0,30.27,NNE,15,0.0,-999.0,68,-99.99,,,-99.99,,2013-09-17 06:22:00,
2013-09-17 02:32:00,47.0,37.0,30.27,NNE,15,0.0,-999.0,68,-99.99,,,-99.99,,2013-09-17 06:32:00,
2013-09-17 02:52:00,46.0,37.0,30.27,ENE,57,0.0,-999.0,71,-99.99,,,-99.99,,2013-09-17 06:52:00,
2013-09-17 03:23:00,45.0,37.0,30.28,North,351,0.0,-999.0,72,-99.99,,,-99.99,,2013-09-17 07:23:00,
2013-09-17 03:32:00,45.0,37.0,30.28,North,351,0.0,-999.0,72,-99.99,,,-99.99,,2013-09-17 07:32:00,
2013-09-17 03:52:00,44.0,36.0,30.28,NNW,342,0.0,-999.0,74,-99.99,,,-99.99,,2013-09-17 07:52:00,
2013-09-17 04:12:00,44.0,37.0,30.29,NNE,17,0.0,-999.0,76,-99.99,,,-99.99,,2013-09-17 08:12:00,
2013-09-17 04:22:00,44.0,37.0,30.29,NNE,17,0.0,-999.0,76,-99.99,,,-99.99,,2013-09-17 08:22:00,
2013-09-17 04:52:00,43.0,37.0,30.29,NE,34,0.0,-999.0,80,-99.99,,,-99.99,,2013-09-17 08:52:00,
2013-09-17 05:22:00,42.0,37.0,30.30,NNE,17,0.0,-999.0,82,-99.99,,,-99.99,,2013-09-17 09:22:00,
2013-09-17 05:53:00,41.0,37.0,30.31,NNE,17,0.0,-999.0,84,-99.99,,,-99.99,,2013-09-17 09:53:00,
2013-09-17 06:23:00,40.0,36.0,30.32,NNE,17,0.0,-999.0,86,-99.99,,,-99.99,,2013-09-17 10:23:00,
2013-09-17 06:53:00,40.0,37.0,30.34,NNE,17,0.0,-999.0,89,-99.99,,,-99.99,,2013-09-17 10:53:00,
2013-09-17 07:22:00,39.0,36.0,30.36,NNE,17,0.0,-999.0,90,-99.99,,,-99.99,,2013-09-17 11:22:00,
2013-09-17 07:52:00,39.0,37.0,30.36,NNE,17,0.0,-999.0,91,-99.99,,,-99.99,,2013-09-17 11:52:00,
2013-09-17 08:12:00,41.0,38.0,30.37,NNE,22,1.0,-999.0,88,-99.99,,,-99.99,,2013-09-17 12:12:00,
2013-09-17 08:22:00,41.0,38.0,30.37,NNE,22,1.0,-999.0,88,-99.99,,,-99.99,,2013-09-17 12:22:00,
2013-09-17 08:52:00,46.0,40.0,30.38,NNE,13,0.0,-999.0,78,-99.99,,,-99.99,,2013-09-17 12:52:00,
2013-09-17 09:22:00,49.0,39.0,30.39,NNE,22,1.0,-999.0,68,-99.99,,,-99.99,,2013-09-17 13:22:00,
2013-09-17 09:52:00,51.0,40.0,30.39,NNE,15,2.0,-999.0,65,-99.99,,,-99.99,,2013-09-17 13:52:00,
2013-09-17 10:22:00,52.0,39.0,30.40,NE,36,4.0,-999.0,61,-99.99,,,-99.99,,2013-09-17 14:22:00,
2013-09-17 10:52:00,54.0,40.0,30.40,NNE,24,9.0,-999.0,58,-99.99,,,-99.99,,2013-09-17 14:52:00,
2013-09-17 11:22:00,54.0,40.0,30.41,NE,42,5.0,-999.0,58,-99.99,,,-99.99,,2013-09-17 15:22:00,
2013-09-17 11:53:00,55.0,40.0,30.40,ENE,74,3.0,-999.0,57,-99.99,,,-99.99,,2013-09-17 15:53:00,
2013-09-17 12:23:00,56.0,41.0,30.40,ESE,119,2.0,-999.0,57,-99.99,,,-99.99,,2013-09-17 16:23:00,
2013-09-17 12:54:00,57.0,41.0,30.40,NNE,30,1.0,-999.0,55,-99.99,,,-99.99,,2013-09-17 16:54:00,
2013-09-17 13:24:00,57.0,38.0,30.40,NE,52,2.0,-999.0,48,-99.99,,,-99.99,,2013-09-17 17:24:00,
2013-09-17 13:53:00,58.0,40.0,30.38,North,5,2.0,-999.0,51,-99.99,,,-99.99,,2013-09-17 17:53:00,
2013-09-17 14:22:00,59.0,41.0,30.37,WSW,250,0.0,-999.0,52,-99.99,,,-99.99,,2013-09-17 18:22:00,
2013-09-17 14:52:00,60.0,42.0,30.36,NNE,15,0.0,-999.0,51,-99.99,,,-99.99,,2013-09-17 18:52:00,
2013-09-17 15:22:00,61.0,43.0,30.35,NNE,25,1.0,-999.0,51,-99.99,,,-99.99,,2013-09-17 19:22:00,
2013-09-17 15:32:00,61.0,43.0,30.35,NNE,25,1.0,-999.0,51,-99.99,,,-99.99,,2013-09-17 19:32:00,
2013-09-17 15:52:00,62.0,42.0,30.33,WSW,252,0.0,-999.0,48,-99.99,,,-99.99,,2013-09-17 19:52:00,
2013-09-17 16:22:00,60.0,43.0,30.33,SSW,199,5.0,-999.0,53,-99.99,,,-99.99,,2013-09-17 20:22:00,
2013-09-17 16:52:00,60.0,44.0,30.33,SW,214,0.0,-999.0,55,-99.99,,,-99.99,,2013-09-17 20:52:00,
2013-09-17 17:12:00,60.0,45.0,30.33,SW,214,0.0,-999.0,57,-99.99,,,-99.99,,2013-09-17 21:12:00,
2013-09-17 17:22:00,60.0,45.0,30.33,SW,214,0.0,-999.0,57,-99.99,,,-99.99,,2013-09-17 21:22:00,
2013-09-17 17:54:00,58.0,45.0,30.32,SW,217,0.0,-999.0,62,-99.99,,,-99.99,,2013-09-17 21:54:00,
2013-09-17 18:13:00,57.0,45.0,30.32,SW,217,0.0,-999.0,64,-99.99,,,-99.99,,2013-09-17 22:13:00,
2013-09-17 18:24:00,57.0,45.0,30.32,SW,217,0.0,-999.0,64,-99.99,,,-99.99,,2013-09-17 22:24:00,
2013-09-17 18:33:00,57.0,45.0,30.32,SW,217,0.0,-999.0,64,-99.99,,,-99.99,,2013-09-17 22:33:00,
2013-09-17 18:53:00,55.0,48.0,30.31,SW,217,0.0,-999.0,76,-99.99,,,-99.99,,2013-09-17 22:53:00,
2013-09-17 19:12:00,53.0,47.0,30.31,SW,217,0.0,-999.0,80,-99.99,,,-99.99,,2013-09-17 23:12:00,
2013-09-17 19:22:00,53.0,47.0,30.31,SW,217,0.0,-999.0,80,-99.99,,,-99.99,,2013-09-17 23:22:00,
2013-09-17 19:42:00,50.0,46.0,30.31,SW,217,0.0,-999.0,86,-99.99,,,-99.99,,2013-09-17 23:42:00,
2013-09-17 19:52:00,50.0,46.0,30.31,SW,217,0.0,-999.0,86,-99.99,,,-99.99,,2013-09-17 23:52:00,
2013-09-17 20:22:00,48.0,45.0,30.31,SW,217,0.0,-999.0,89,-99.99,,,-99.99,,2013-09-18 00:22:00,
2013-09-17 20:52:00,46.0,44.0,30.32,SW,217,0.0,-999.0,91,-99.99,,,-99.99,,2013-09-18 00:52:00,
2013-09-17 21:11:00,46.0,44.0,30.31,SW,217,0.0,-999.0,91,-99.99,,,-99.99,,2013-09-18 01:11:00,
2013-09-17 21:22:00,46.0,44.0,30.31,SW,217,0.0,-999.0,91,-99.99,,,-99.99,,2013-09-18 01:22:00,
2013-09-17 21:52:00,45.0,43.0,30.31,SW,217,0.0,-999.0,92,-99.99,,,-99.99,,2013-09-18 01:52:00,
2013-09-17 22:22:00,44.0,42.0,30.31,SW,217,0.0,-999.0,93,-99.99,,,-99.99,,2013-09-18 02:22:00,
2013-09-17 22:43:00,44.0,42.0,30.31,SW,217,0.0,-999.0,93,-99.99,,,-99.99,,2013-09-18 02:43:00,
2013-09-17 22:52:00,44.0,42.0,30.31,SW,217,0.0,-999.0,94,-99.99,,,-99.99,,2013-09-18 02:52:00,
2013-09-17 23:02:00,44.0,42.0,30.31,SW,217,0.0,-999.0,94,-99.99,,,-99.99,,2013-09-18 03:02:00,
2013-09-17 23:23:00,43.0,41.0,30.32,SW,217,0.0,-999.0,94,-99.99,,,-99.99,,2013-09-18 03:23:00,
2013-09-17 23:55:00,43.0,41.0,30.31,SW,217,0.0,-999.0,94,-99.99,,,-99.99,,2013-09-18 03:55:00,